createdAt,value
2022-12-01T00:01:28.116Z,7.40
2022-12-01T00:03:55.867Z,9.70
2022-12-01T00:06:23.692Z,11.20
2022-12-01T00:09:12.999Z,8.10
2022-12-01T00:11:43.208Z,7.40
2022-12-01T00:14:10.956Z,8.00
2022-12-01T00:16:40.647Z,7.90
2022-12-01T00:19:08.797Z,7.30
2022-12-01T00:21:36.623Z,7.90
2022-12-01T00:24:04.512Z,8.00
2022-12-01T00:26:32.339Z,7.50
2022-12-01T00:29:00.241Z,9.80
2022-12-01T00:31:28.157Z,8.20
2022-12-01T00:33:55.997Z,9.80
2022-12-01T00:36:23.969Z,9.20
2022-12-01T00:38:55.658Z,8.90
2022-12-01T00:41:26.001Z,9.40
2022-12-01T00:43:54.001Z,8.40
2022-12-01T00:46:21.849Z,9.30
2022-12-01T00:48:49.964Z,9.90
2022-12-01T00:51:17.785Z,8.60
2022-12-01T00:53:46.103Z,9.80
2022-12-01T00:56:15.019Z,9.80
2022-12-01T00:58:42.852Z,8.80
2022-12-01T01:01:10.585Z,11.10
2022-12-01T01:03:38.608Z,8.60
2022-12-01T01:06:11.388Z,8.60
2022-12-01T01:08:39.652Z,10.10
2022-12-01T01:11:07.876Z,9.40
2022-12-01T01:13:36.128Z,9.20
2022-12-01T01:16:11.644Z,8.70
2022-12-01T01:18:39.366Z,8.40
2022-12-01T01:21:09.137Z,7.90
2022-12-01T01:23:38.764Z,9.10
2022-12-01T01:26:10.785Z,8.20
2022-12-01T01:28:41.509Z,8.70
2022-12-01T01:31:11.406Z,9.30
2022-12-01T01:33:39.353Z,8.90
2022-12-01T01:36:07.297Z,8.80
2022-12-01T01:38:35.552Z,9.50
2022-12-01T01:41:04.590Z,8.30
2022-12-01T01:43:46.565Z,9.70
2022-12-01T01:46:31.575Z,8.10
2022-12-01T01:49:08.269Z,8.00
2022-12-01T01:51:46.533Z,8.90
2022-12-01T01:54:29.384Z,8.50
2022-12-01T01:56:57.574Z,9.10
2022-12-01T01:59:31.839Z,9.40
2022-12-01T02:02:08.686Z,7.40
2022-12-01T02:04:40.559Z,8.60
2022-12-01T02:07:09.239Z,8.30
2022-12-01T02:09:37.044Z,9.20
2022-12-01T02:12:39.360Z,9.10
2022-12-01T02:15:42.411Z,8.40
2022-12-01T02:18:25.400Z,8.50
2022-12-01T02:21:08.422Z,9.00
2022-12-01T02:24:06.667Z,9.40
2022-12-01T02:26:53.387Z,7.90
2022-12-01T02:30:02.087Z,8.60
2022-12-01T02:33:02.161Z,9.20
2022-12-01T02:35:52.722Z,8.40
2022-12-01T02:38:40.280Z,8.80
2022-12-01T02:41:20.055Z,9.00
2022-12-01T02:44:03.526Z,9.70
2022-12-01T02:46:36.120Z,8.40
2022-12-01T02:49:10.471Z,8.50
2022-12-01T02:51:38.329Z,7.90
2022-12-01T02:54:06.251Z,9.80
2022-12-01T02:56:34.500Z,9.70
2022-12-01T02:59:02.204Z,8.20
2022-12-01T03:01:46.148Z,8.70
2022-12-01T03:04:43.706Z,8.90
2022-12-01T03:07:57.557Z,10.60
2022-12-01T03:10:57.857Z,9.20
2022-12-01T03:13:50.333Z,9.80
2022-12-01T03:16:32.074Z,9.20
2022-12-01T03:19:04.428Z,8.80
2022-12-01T03:21:42.201Z,9.40
2022-12-01T03:24:19.538Z,9.00
2022-12-01T03:26:51.939Z,10.10
2022-12-01T03:29:23.019Z,10.30
2022-12-01T03:31:56.999Z,7.50
2022-12-01T03:34:40.493Z,8.80
2022-12-01T03:37:26.591Z,9.00
2022-12-01T03:40:00.245Z,9.10
2022-12-01T03:42:42.174Z,8.30
2022-12-01T03:45:16.033Z,8.80
2022-12-01T03:47:43.912Z,9.20
2022-12-01T03:50:14.171Z,8.50
2022-12-01T03:53:19.587Z,9.60
2022-12-01T03:55:52.359Z,9.00
2022-12-01T03:58:26.003Z,9.30
2022-12-01T04:00:57.633Z,9.10
2022-12-01T04:03:25.751Z,8.80
2022-12-01T04:05:53.764Z,9.50
2022-12-01T04:08:21.563Z,7.70
2022-12-01T04:10:49.448Z,7.50
2022-12-01T04:13:23.049Z,9.30
2022-12-01T04:15:52.119Z,9.00
2022-12-01T04:18:20.055Z,8.40
2022-12-01T04:20:49.377Z,8.60
2022-12-01T04:23:36.001Z,8.60
2022-12-01T04:26:04.776Z,8.60
2022-12-01T04:28:32.907Z,8.90
2022-12-01T04:31:00.664Z,8.50
2022-12-01T04:33:29.604Z,8.20
2022-12-01T04:35:59.268Z,9.00
2022-12-01T04:38:30.530Z,8.70
2022-12-01T04:40:59.049Z,8.30
2022-12-01T04:43:26.774Z,9.10
2022-12-01T04:45:54.596Z,9.40
2022-12-01T04:48:22.351Z,7.00
2022-12-01T04:50:50.075Z,9.20
2022-12-01T04:53:17.756Z,9.10
2022-12-01T04:55:45.679Z,8.90
2022-12-01T04:58:13.431Z,8.70
2022-12-01T05:00:41.363Z,7.90
2022-12-01T05:03:14.688Z,7.10
2022-12-01T05:05:43.087Z,9.60
2022-12-01T05:08:11.054Z,9.10
2022-12-01T05:10:39.046Z,8.70
2022-12-01T05:13:06.930Z,9.80
2022-12-01T05:15:34.777Z,8.40
2022-12-01T05:18:02.479Z,8.30
2022-12-01T05:20:48.928Z,7.30
2022-12-01T05:23:17.286Z,8.00
2022-12-01T05:25:45.128Z,9.00
2022-12-01T05:28:13.017Z,7.90
2022-12-01T05:30:40.897Z,8.20
2022-12-01T05:33:08.708Z,8.90
2022-12-01T05:35:36.528Z,8.10
2022-12-01T05:38:07.788Z,10.20
2022-12-01T05:40:37.547Z,9.10
2022-12-01T05:43:05.653Z,9.20
2022-12-01T05:45:35.349Z,9.40
2022-12-01T05:48:03.250Z,9.90
2022-12-01T05:50:31.138Z,8.40
2022-12-01T05:52:59.009Z,9.90
2022-12-01T05:55:26.903Z,8.90
2022-12-01T05:57:54.667Z,9.00
2022-12-01T06:00:22.716Z,9.90
2022-12-01T06:02:50.485Z,9.80
2022-12-01T06:05:18.261Z,10.40
2022-12-01T06:07:46.122Z,10.10
2022-12-01T06:10:14.061Z,9.50
2022-12-01T06:12:41.875Z,9.90
2022-12-01T06:15:11.223Z,10.30
2022-12-01T06:17:40.587Z,9.40
2022-12-01T06:20:09.499Z,7.70
2022-12-01T06:22:37.447Z,8.20
2022-12-01T06:25:05.988Z,9.40
2022-12-01T06:27:33.781Z,8.20
2022-12-01T06:30:02.046Z,9.60
2022-12-01T06:32:29.886Z,10.40
2022-12-01T06:34:57.640Z,9.30
2022-12-01T06:37:27.545Z,10.60
2022-12-01T06:39:55.274Z,9.50
2022-12-01T06:42:23.098Z,9.30
2022-12-01T06:44:50.817Z,9.80
2022-12-01T06:47:18.660Z,9.30
2022-12-01T06:49:46.519Z,8.20
2022-12-01T06:52:14.374Z,9.90
2022-12-01T06:54:42.103Z,9.80
2022-12-01T06:57:10.191Z,10.10
2022-12-01T06:59:37.921Z,10.60
2022-12-01T07:02:05.948Z,7.70
2022-12-01T07:04:33.773Z,10.50
2022-12-01T07:07:01.486Z,10.40
2022-12-01T07:09:29.223Z,10.20
2022-12-01T07:11:57.082Z,10.00
2022-12-01T07:14:26.661Z,14.00
2022-12-01T07:16:54.672Z,12.30
2022-12-01T07:19:22.656Z,12.80
2022-12-01T07:21:50.508Z,11.80
2022-12-01T07:24:18.317Z,12.10
2022-12-01T07:26:46.446Z,10.20
2022-12-01T07:29:14.241Z,9.80
2022-12-01T07:31:42.017Z,8.90
2022-12-01T07:34:12.465Z,10.70
2022-12-01T07:36:40.247Z,9.40
2022-12-01T07:39:08.479Z,10.10
2022-12-01T07:41:36.326Z,11.20
2022-12-01T07:44:04.197Z,9.30
2022-12-01T07:46:32.060Z,10.70
2022-12-01T07:49:00.449Z,10.00
2022-12-01T07:51:28.322Z,7.90
2022-12-01T07:53:56.292Z,9.90
2022-12-01T07:56:24.229Z,8.70
2022-12-01T07:58:52.135Z,7.90
2022-12-01T08:01:22.517Z,8.10
2022-12-01T08:03:52.675Z,10.00
2022-12-01T08:06:20.675Z,8.70
2022-12-01T08:08:48.816Z,10.80
2022-12-01T08:11:29.457Z,10.80
2022-12-01T08:13:57.344Z,10.60
2022-12-01T08:16:25.455Z,9.30
2022-12-01T08:18:53.702Z,11.50
2022-12-01T08:21:23.031Z,9.00
2022-12-01T08:23:55.508Z,10.90
2022-12-01T08:26:24.914Z,11.70
2022-12-01T08:28:52.689Z,10.20
2022-12-01T08:31:23.862Z,10.30
2022-12-01T08:33:52.077Z,11.30
2022-12-01T08:36:20.613Z,9.40
2022-12-01T08:38:53.104Z,10.30
2022-12-01T08:41:21.148Z,11.60
2022-12-01T08:43:58.056Z,10.20
2022-12-01T08:46:34.336Z,12.60
2022-12-01T08:49:05.357Z,13.10
2022-12-01T08:51:33.156Z,9.50
2022-12-01T08:54:01.352Z,10.30
2022-12-01T08:56:34.743Z,10.50
2022-12-01T08:59:02.798Z,10.00
2022-12-01T09:01:30.829Z,12.30
2022-12-01T09:04:08.625Z,9.10
2022-12-01T09:06:42.560Z,9.80
2022-12-01T09:09:16.623Z,9.50
2022-12-01T09:11:45.242Z,9.30
2022-12-01T09:14:14.251Z,9.30
2022-12-01T09:16:43.537Z,8.60
2022-12-01T09:19:13.237Z,10.00
2022-12-01T09:21:43.439Z,10.40
2022-12-01T09:24:13.070Z,10.10
2022-12-01T09:26:41.437Z,10.20
2022-12-01T09:29:13.641Z,18.10
2022-12-01T09:31:41.879Z,13.90
2022-12-01T09:34:18.562Z,13.60
2022-12-01T09:36:47.306Z,16.30
2022-12-01T09:39:18.191Z,11.50
2022-12-01T09:42:12.960Z,9.90
2022-12-01T09:44:52.720Z,11.10
2022-12-01T09:47:34.377Z,9.40
2022-12-01T09:50:06.995Z,10.70
2022-12-01T09:52:41.248Z,12.50
2022-12-01T09:55:21.131Z,17.00
2022-12-01T09:57:54.623Z,13.50
2022-12-01T10:00:24.712Z,11.80
2022-12-01T10:02:59.022Z,16.20
2022-12-01T10:05:31.557Z,12.20
2022-12-01T10:08:02.469Z,9.50
2022-12-01T10:14:08.776Z,10.30
2022-12-01T10:16:49.389Z,11.20
2022-12-01T10:20:13.326Z,9.80
2022-12-01T10:23:10.536Z,8.80
2022-12-01T10:26:02.478Z,11.60
2022-12-01T10:29:01.412Z,9.70
2022-12-01T10:31:55.333Z,9.00
2022-12-01T10:34:34.805Z,8.40
2022-12-01T10:37:02.602Z,9.10
2022-12-01T10:39:35.020Z,9.20
2022-12-01T10:42:39.579Z,10.30
2022-12-01T10:45:31.991Z,9.80
2022-12-01T10:48:17.164Z,10.40
2022-12-01T10:50:55.344Z,8.70
2022-12-01T10:53:23.137Z,10.50
2022-12-01T10:56:18.312Z,10.30
2022-12-01T10:58:51.883Z,11.10
2022-12-01T11:01:25.462Z,10.50
2022-12-01T11:04:32.491Z,11.00
2022-12-01T11:07:01.341Z,11.50
2022-12-01T11:09:30.272Z,10.60
2022-12-01T11:12:03.415Z,11.90
2022-12-01T11:14:43.307Z,11.30
2022-12-01T11:17:23.448Z,8.70
2022-12-01T11:19:51.471Z,9.20
2022-12-01T11:22:27.796Z,8.50
2022-12-01T11:24:56.389Z,9.40
2022-12-01T11:27:26.945Z,9.40
2022-12-01T11:29:57.338Z,9.90
2022-12-01T11:32:30.985Z,12.10
2022-12-01T11:35:03.377Z,13.50
2022-12-01T11:37:38.612Z,10.30
2022-12-01T11:40:32.065Z,11.90
2022-12-01T11:43:05.147Z,10.40
2022-12-01T11:45:40.245Z,10.20
2022-12-01T11:48:17.071Z,11.00
2022-12-01T11:50:45.991Z,10.40
2022-12-01T11:53:32.323Z,10.30
2022-12-01T11:56:23.829Z,9.20
2022-12-01T11:59:03.537Z,8.20
2022-12-01T12:02:06.229Z,9.60
2022-12-01T12:05:20.105Z,9.70
2022-12-01T12:08:07.697Z,9.50
2022-12-01T12:11:01.705Z,8.50
2022-12-01T12:13:57.022Z,9.00
2022-12-01T12:16:52.751Z,7.30
2022-12-01T12:20:07.553Z,9.10
2022-12-01T12:23:06.517Z,9.60
2022-12-01T12:25:59.055Z,9.00
2022-12-01T12:28:45.637Z,9.30
2022-12-01T12:31:47.546Z,7.80
2022-12-01T12:34:56.597Z,7.10
2022-12-01T12:37:57.112Z,6.50
2022-12-01T12:41:00.986Z,8.00
2022-12-01T12:43:41.546Z,7.10
2022-12-01T12:46:41.467Z,7.30
2022-12-01T12:49:58.557Z,7.90
2022-12-01T12:52:37.426Z,7.30
2022-12-01T12:55:21.575Z,7.20
2022-12-01T12:57:53.094Z,9.50
2022-12-01T13:00:27.015Z,10.00
2022-12-01T13:03:09.739Z,9.80
2022-12-01T13:05:49.444Z,10.80
2022-12-01T13:08:25.577Z,9.70
2022-12-01T13:11:20.178Z,8.60
2022-12-01T13:13:48.443Z,8.00
2022-12-01T13:16:28.372Z,7.60
2022-12-01T13:19:05.030Z,9.40
2022-12-01T13:21:44.832Z,10.10
2022-12-01T13:24:19.849Z,8.80
2022-12-01T13:27:11.224Z,10.10
2022-12-01T13:29:44.356Z,8.70
2022-12-01T13:32:34.640Z,8.80
2022-12-01T13:35:29.751Z,10.00
2022-12-01T13:38:33.778Z,9.00
2022-12-01T13:41:33.427Z,9.30
2022-12-01T13:44:08.440Z,7.50
2022-12-01T13:46:42.307Z,7.30
2022-12-01T13:49:40.592Z,7.10
2022-12-01T13:52:28.131Z,6.30
2022-12-01T13:55:09.610Z,5.40
2022-12-01T13:58:21.205Z,5.70
2022-12-01T14:00:51.007Z,4.90
2022-12-01T14:03:22.013Z,7.10
2022-12-01T14:06:08.439Z,8.60
2022-12-01T14:08:44.626Z,5.70
2022-12-01T14:11:26.907Z,7.40
2022-12-01T14:14:10.550Z,6.80
2022-12-01T14:16:58.661Z,7.30
2022-12-01T14:19:41.078Z,9.40
2022-12-01T14:22:34.221Z,9.60
2022-12-01T14:25:03.140Z,8.90
2022-12-01T14:27:43.000Z,10.10
2022-12-01T14:30:39.453Z,9.50
2022-12-01T14:33:58.017Z,10.40
2022-12-01T14:36:49.882Z,11.70
2022-12-01T14:39:31.489Z,10.20
2022-12-01T14:42:11.570Z,13.20
2022-12-01T14:44:48.500Z,11.80
2022-12-01T14:47:23.205Z,11.30
2022-12-01T14:49:59.284Z,8.50
2022-12-01T14:52:36.821Z,9.20
2022-12-01T14:55:16.052Z,9.00
2022-12-01T14:57:50.560Z,8.80
2022-12-01T15:00:24.018Z,8.90
2022-12-01T15:02:58.515Z,9.30
2022-12-01T15:05:28.605Z,9.00
2022-12-01T15:08:33.289Z,8.80
2022-12-01T15:10:53.128Z,6.90
2022-12-01T15:13:30.795Z,9.20
2022-12-01T15:16:04.201Z,10.10
2022-12-01T15:18:34.832Z,9.20
2022-12-01T15:21:25.841Z,9.50
2022-12-01T15:24:04.707Z,8.80
2022-12-01T15:26:35.880Z,8.60
2022-12-01T15:29:15.613Z,10.50
2022-12-01T15:31:46.719Z,10.50
2022-12-01T15:34:24.846Z,10.20
2022-12-01T15:36:53.078Z,9.40
2022-12-01T15:39:37.227Z,11.40
2022-12-01T15:42:05.397Z,9.90
2022-12-01T15:44:35.783Z,9.50
2022-12-01T15:47:46.654Z,9.40
2022-12-01T15:50:26.293Z,10.60
2022-12-01T15:52:54.435Z,12.00
2022-12-01T15:55:31.936Z,14.00
2022-12-01T15:57:59.822Z,11.10
2022-12-01T16:00:27.632Z,11.80
2022-12-01T16:02:57.392Z,10.40
2022-12-01T16:05:31.547Z,10.80
2022-12-01T16:08:34.565Z,10.50
2022-12-01T16:11:17.167Z,10.20
2022-12-01T16:13:47.265Z,9.60
2022-12-01T16:16:37.990Z,10.70
2022-12-01T16:19:08.740Z,10.10
2022-12-01T16:21:48.940Z,9.30
2022-12-01T16:24:23.560Z,9.20
2022-12-01T16:27:05.395Z,9.90
2022-12-01T16:29:52.354Z,9.40
2022-12-01T16:32:49.373Z,11.60
2022-12-01T16:35:25.388Z,9.80
2022-12-01T16:37:57.355Z,10.00
2022-12-01T16:40:25.421Z,10.40
2022-12-01T16:42:53.219Z,9.60
2022-12-01T16:45:21.103Z,10.10
2022-12-01T16:47:49.337Z,13.00
2022-12-01T16:50:20.108Z,10.60
2022-12-01T16:52:48.349Z,10.40
2022-12-01T16:55:38.632Z,10.80
2022-12-01T16:58:06.694Z,9.00
2022-12-01T17:00:34.994Z,9.30
2022-12-01T17:03:02.825Z,8.20
2022-12-01T17:05:30.596Z,11.40
2022-12-01T17:07:58.573Z,9.60
2022-12-01T17:10:26.717Z,9.00
2022-12-01T17:12:54.546Z,10.40
2022-12-01T17:15:22.292Z,9.70
2022-12-01T17:17:50.035Z,8.00
2022-12-01T17:20:18.653Z,10.90
2022-12-01T17:22:46.460Z,8.90
2022-12-01T17:25:14.218Z,11.60
2022-12-01T17:27:43.858Z,11.50
2022-12-01T17:30:12.713Z,12.90
2022-12-01T17:32:40.451Z,11.20
2022-12-01T17:35:09.071Z,7.60
2022-12-01T17:37:39.700Z,9.30
2022-12-01T17:40:08.894Z,8.10
2022-12-01T17:42:37.177Z,9.70
2022-12-01T17:45:05.862Z,9.70
2022-12-01T17:47:33.676Z,7.50
2022-12-01T17:50:01.585Z,11.70
2022-12-01T17:52:30.010Z,12.00
2022-12-01T17:54:58.168Z,8.10
2022-12-01T17:57:26.081Z,9.10
2022-12-01T17:59:53.840Z,8.60
2022-12-01T18:02:21.650Z,10.70
2022-12-01T18:04:50.053Z,11.60
2022-12-01T18:07:18.108Z,8.70
2022-12-01T18:09:45.996Z,8.10
2022-12-01T18:12:13.745Z,7.90
2022-12-01T18:14:41.638Z,9.20
2022-12-01T18:17:09.493Z,9.00
2022-12-01T18:19:37.779Z,7.30
2022-12-01T18:22:05.690Z,7.00
2022-12-01T18:24:33.697Z,7.40
2022-12-01T18:27:01.475Z,6.90
2022-12-01T18:29:30.449Z,7.50
2022-12-01T18:32:00.117Z,7.70
2022-12-01T18:34:29.651Z,8.50
2022-12-01T18:36:57.709Z,8.40
2022-12-01T18:39:28.132Z,7.60
2022-12-01T18:41:56.387Z,8.70
2022-12-01T18:44:24.337Z,9.30
2022-12-01T18:46:52.270Z,9.40
2022-12-01T18:49:20.239Z,8.70
2022-12-01T18:51:48.116Z,8.70
2022-12-01T18:54:16.059Z,9.40
2022-12-01T18:56:43.993Z,9.60
2022-12-01T18:59:12.805Z,12.20
2022-12-01T19:01:43.931Z,15.70
2022-12-01T19:04:12.436Z,12.10
2022-12-01T19:06:41.824Z,10.30
2022-12-01T19:09:11.613Z,9.40
2022-12-01T19:11:40.777Z,9.30
2022-12-01T19:14:15.804Z,7.40
2022-12-01T19:16:44.720Z,8.10
2022-12-01T19:19:12.702Z,11.00
2022-12-01T19:21:40.763Z,10.10
2022-12-01T19:24:09.595Z,9.60
2022-12-01T19:26:37.729Z,8.90
2022-12-01T19:29:06.134Z,9.00
2022-12-01T19:31:34.018Z,9.90
2022-12-01T19:34:04.470Z,11.00
2022-12-01T19:36:32.408Z,12.60
2022-12-01T19:39:04.005Z,15.40
2022-12-01T19:41:35.340Z,12.10
2022-12-01T19:44:03.283Z,11.30
2022-12-01T19:46:32.934Z,10.50
2022-12-01T19:49:01.680Z,11.00
2022-12-01T19:51:35.534Z,9.60
2022-12-01T19:54:05.158Z,8.80
2022-12-01T19:56:33.218Z,8.70
2022-12-01T19:59:00.962Z,9.60
2022-12-01T20:01:29.029Z,8.50
2022-12-01T20:03:57.023Z,9.10
2022-12-01T20:06:27.846Z,7.70
2022-12-01T20:09:02.108Z,8.60
2022-12-01T20:11:31.608Z,9.10
2022-12-01T20:13:59.686Z,8.50
2022-12-01T20:16:27.973Z,7.30
2022-12-01T20:18:56.088Z,8.20
2022-12-01T20:21:26.984Z,8.30
2022-12-01T20:23:58.251Z,7.60
2022-12-01T20:26:30.779Z,8.10
2022-12-01T20:29:05.677Z,7.00
2022-12-01T20:31:33.838Z,8.70
2022-12-01T20:34:19.224Z,7.40
2022-12-01T20:36:47.739Z,7.60
2022-12-01T20:39:16.015Z,9.50
2022-12-01T20:41:44.068Z,7.80
2022-12-01T20:44:12.480Z,8.50
2022-12-01T20:46:45.253Z,8.20
2022-12-01T20:49:13.576Z,9.00
2022-12-01T20:51:41.370Z,9.40
2022-12-01T20:54:28.341Z,8.80
2022-12-01T20:56:58.049Z,7.60
2022-12-01T20:59:26.012Z,8.10
2022-12-01T21:01:54.068Z,8.60
2022-12-01T21:04:22.061Z,8.70
2022-12-01T21:06:50.234Z,7.80
2022-12-01T21:09:18.222Z,7.70
2022-12-01T21:12:07.768Z,9.30
2022-12-01T21:14:43.179Z,9.40
2022-12-01T21:17:44.331Z,10.10
2022-12-01T21:20:36.106Z,7.20
2022-12-01T21:23:13.542Z,9.40
2022-12-01T21:25:42.281Z,8.20
2022-12-01T21:28:24.313Z,8.90
2022-12-01T21:31:14.120Z,7.60
2022-12-01T21:33:42.565Z,10.50
2022-12-01T21:36:22.576Z,8.50
2022-12-01T21:38:53.750Z,8.30
2022-12-01T21:41:30.129Z,8.90
2022-12-01T21:44:10.894Z,7.70
2022-12-01T21:46:42.510Z,7.90
2022-12-01T21:49:21.099Z,7.30
2022-12-01T21:51:50.791Z,8.60
2022-12-01T21:54:22.435Z,8.90
2022-12-01T21:56:50.145Z,9.00
2022-12-01T21:59:24.691Z,8.20
2022-12-01T22:01:54.995Z,7.50
2022-12-01T22:04:30.170Z,6.80
2022-12-01T22:06:58.287Z,6.60
2022-12-01T22:09:36.496Z,7.00
2022-12-01T22:12:10.314Z,8.90
2022-12-01T22:14:38.118Z,8.10
2022-12-01T22:17:05.899Z,8.90
2022-12-01T22:19:44.519Z,8.80
2022-12-01T22:22:12.250Z,8.80
2022-12-01T22:24:51.827Z,8.70
2022-12-01T22:27:40.124Z,8.60
2022-12-01T22:30:07.994Z,8.80
2022-12-01T22:32:55.711Z,9.80
2022-12-01T22:35:27.197Z,7.90
2022-12-01T22:38:26.306Z,8.20
2022-12-01T22:40:58.111Z,6.70
2022-12-01T22:43:50.785Z,8.50
2022-12-01T22:46:36.441Z,7.90
2022-12-01T22:49:22.317Z,7.80
2022-12-01T22:52:00.533Z,7.60
2022-12-01T22:54:39.600Z,8.80
2022-12-01T22:57:26.049Z,7.70
2022-12-01T22:59:54.002Z,7.20
2022-12-01T23:02:48.737Z,8.80
2022-12-01T23:05:29.615Z,9.10
2022-12-01T23:07:57.729Z,7.70
2022-12-01T23:10:30.925Z,7.60
2022-12-01T23:13:00.972Z,7.50
2022-12-01T23:15:39.524Z,7.70
2022-12-01T23:18:24.275Z,7.10
2022-12-01T23:21:00.158Z,9.00
2022-12-01T23:23:30.404Z,8.20
2022-12-01T23:25:58.199Z,7.90
2022-12-01T23:28:26.036Z,6.70
2022-12-01T23:30:56.735Z,7.00
2022-12-01T23:33:27.640Z,6.50
2022-12-01T23:36:12.706Z,4.20
2022-12-01T23:38:47.622Z,6.20
2022-12-01T23:41:50.265Z,6.70
2022-12-01T23:44:35.681Z,8.00
2022-12-01T23:47:03.602Z,7.80
2022-12-01T23:49:33.555Z,7.30
2022-12-01T23:52:03.133Z,8.00
2022-12-01T23:54:34.785Z,7.70
2022-12-01T23:57:19.874Z,7.30
2022-12-01T23:59:49.589Z,8.00
